Eviapetrol V — SVCB2 — position and weather

sailwx.info

Track history (hours):
 
Tides and Currents Weather Stations Pressure Air Temp Water Temp Dewpoint Dewpoint Depression Visibility Wind Speed Wind Dir Waves Ship Positions

Eviapetrol V

Last reported at 2018-Jun-16 09:45 UTC. Time now 2018-Jun-20 13:12 UTC.
Position N 38°14' E 022°26'.

Length 120 m; draft 5.3 m.

Type: Ship (hazmat cat B). MMSI: 241344000.

Date/timePositionNaut miles runAvg speedWind from/ knotsBaromVisibWave heightAir tempDewpointWater temp
2018-Jun-16 09:45N 38°14' E 022°26'412.8
2018-Jun-16 09:27N 38°13' E 022°30'3 7.5
2018-Jun-16 09:00N 38°10' E 022°33'612.7
2018-Jun-16 08:30N 38°07' E 022°40'5 9.9
2018-Jun-16 08:00N 38°05' E 022°46'0 0.6
2018-Jun-16 07:31N 38°05' E 022°46'0 0.7
2018-Jun-16 07:00N 38°05' E 022°45'2 3.4
2018-Jun-16 06:30N 38°04' E 022°46'5 9.7
2018-Jun-16 06:00N 38°01' E 022°51'4 8.9
2018-Jun-16 05:30N 37°58' E 022°56'5 3.8
2018-Jun-16 04:20N 37°55' E 023°00'1 3.7
2018-Jun-16 04:00N 37°55' E 023°01'3 5.6
2018-Jun-16 03:30N 37°54' E 023°05'611.6
2018-Jun-16 03:01N 37°53' E 023°12'611.5
2018-Jun-16 02:31N 37°51' E 023°19'1 1.8
2018-Jun-16 02:00N 37°51' E 023°20'510.7
2018-Jun-16 01:31N 37°50' E 023°27'611.5
2018-Jun-16 01:01N 37°51' E 023°34'4 7.1
2018-Jun-16 00:31N 37°54' E 023°35'1 2.6
2018-Jun-16 00:01N 37°53' E 023°37'510.9
2018-Jun-15 23:30N 37°49' E 023°40'612.3
2018-Jun-15 23:01N 37°43' E 023°43'612.4
2018-Jun-15 22:30N 37°39' E 023°49'  
2018-Jun-09 18:05N 40°47' E 027°46'112.4
2018-Jun-09 18:00N 40°47' E 027°48'612.4
2018-Jun-09 17:29N 40°48' E 027°56'712.8
2018-Jun-09 16:56N 40°49' E 028°05'712.8
2018-Jun-09 16:22N 40°51' E 028°15'1912.2
2018-Jun-09 14:46N 40°54' E 028°40'811.8
2018-Jun-09 14:05N 40°55' E 028°51'112.0
2018-Jun-09 13:59N 40°55' E 028°52'610.8
2018-Jun-09 13:26N 40°59' E 028°59'1511.7
2018-Jun-09 12:10N 41°12' E 029°07'2 9.9
2018-Jun-09 12:00N 41°14' E 029°08'4 8.1
2018-Jun-09 11:30N 41°18' E 029°07'2 4.8
2018-Jun-09 11:00N 41°20' E 029°05'4 6.7
2018-Jun-09 10:28N 41°22' E 029°01'0 0.5
2018-Jun-09 10:00N 41°22' E 029°01'0 0.0
2018-Jun-09 09:30N 41°22' E 029°01'0 0.2
2018-Jun-09 08:58N 41°22' E 029°01'0 0.4
2018-Jun-09 08:30N 41°21' E 029°01'0 0.2
2018-Jun-09 07:59N 41°21' E 029°01'4 8.3
2018-Jun-09 07:30N 41°25' E 029°00'612.3
2018-Jun-09 07:00N 41°31' E 029°05'612.0
2018-Jun-09 06:30N 41°36' E 029°06'812.5
2018-Jun-09 05:53N 41°44' E 029°05'512.7
2018-Jun-09 05:30N 41°49' E 029°05'612.8
2018-Jun-09 05:00N 41°55' E 029°04'612.7
2018-Jun-09 04:30N 42°02' E 029°03'612.6
2018-Jun-09 04:01N 42°08' E 029°03'612.5
2018-Jun-09 03:30N 42°14' E 029°02'612.5
2018-Jun-09 03:00N 42°21' E 029°02'612.6
2018-Jun-09 02:31N 42°27' E 029°01'612.6
2018-Jun-09 02:00N 42°33' E 029°00'612.5
2018-Jun-09 01:30N 42°39' E 028°60'612.3
2018-Jun-09 01:00N 42°45' E 028°59'612.2
2018-Jun-09 00:30N 42°52' E 028°59'612.1
2018-Jun-09 00:00N 42°58' E 028°58'612.1
2018-Jun-08 23:30N 43°04' E 028°58'612.2
2018-Jun-08 23:00N 43°10' E 028°56'612.1
2018-Jun-08 22:30N 43°16' E 028°55'611.9
2018-Jun-08 22:00N 43°22' E 028°56'612.1
2018-Jun-08 21:30N 43°28' E 028°55'612.1
2018-Jun-08 21:00N 43°34' E 028°55'612.3
2018-Jun-08 20:30N 43°40' E 028°54'612.3
2018-Jun-08 20:00N 43°46' E 028°54'612.3
2018-Jun-08 19:30N 43°52' E 028°53'611.9
2018-Jun-08 19:00N 43°58' E 028°52'611.6
2018-Jun-08 18:30N 44°04' E 028°52'510.8
2018-Jun-08 18:00N 44°09' E 028°51'611.4
2018-Jun-08 17:30N 44°14' E 028°47'611.3
2018-Jun-08 17:00N 44°18' E 028°42'2 4.1
2018-Jun-08 16:29N 44°20' E 028°40'0 0.1
2018-Jun-08 16:00N 44°20' E 028°40'0 0.0
2018-Jun-08 15:30N 44°20' E 028°40'0 0.0
2018-Jun-08 14:52N 44°20' E 028°40'0 0.0
2018-Jun-08 14:28N 44°20' E 028°40'0 0.0
2018-Jun-08 13:58N 44°20' E 028°40'0 0.0
2018-Jun-08 13:28N 44°20' E 028°40'0 0.0
2018-Jun-08 12:58N 44°20' E 028°40'0 0.0
2018-Jun-08 12:28N 44°20' E 028°40'0 0.0
2018-Jun-08 11:55N 44°20' E 028°40'0 0.0
2018-Jun-08 11:28N 44°20' E 028°40'0 0.0
2018-Jun-08 10:55N 44°20' E 028°40'0 0.0
2018-Jun-08 10:28N 44°20' E 028°40'0 0.0
2018-Jun-08 09:58N 44°20' E 028°40'0 0.0
2018-Jun-08 09:28N 44°20' E 028°40'0 0.0
2018-Jun-08 08:55N 44°20' E 028°40'0 0.0
2018-Jun-08 08:28N 44°20' E 028°40'0 0.0
2018-Jun-08 07:58N 44°20' E 028°40'0 0.0
2018-Jun-08 07:28N 44°20' E 028°40'0 0.0
2018-Jun-08 06:55N 44°20' E 028°40'0 0.0
2018-Jun-08 06:28N 44°20' E 028°40'0 0.0
2018-Jun-08 05:58N 44°20' E 028°40'0 0.0
2018-Jun-08 05:28N 44°20' E 028°40'0 0.0
2018-Jun-08 04:58N 44°20' E 028°40'0 0.0
2018-Jun-08 04:28N 44°20' E 028°40'0 0.0
2018-Jun-08 03:58N 44°20' E 028°40'0 0.0
2018-Jun-08 03:28N 44°20' E 028°40'0 0.0
2018-Jun-08 02:55N 44°20' E 028°40'0 0.0
2018-Jun-08 02:28N 44°20' E 028°40'0 0.0
2018-Jun-08 01:58N 44°20' E 028°40'0 0.0
2018-Jun-08 01:28N 44°20' E 028°40'0 0.0
2018-Jun-08 00:58N 44°20' E 028°40'0 0.0
2018-Jun-08 00:28N 44°20' E 028°40'0 0.0
2018-Jun-07 23:58N 44°20' E 028°40'0 0.0
2018-Jun-07 23:28N 44°20' E 028°40'0 0.0
2018-Jun-07 22:58N 44°20' E 028°40'0 0.0
2018-Jun-07 22:25N 44°20' E 028°40'0 0.0
2018-Jun-07 21:58N 44°20' E 028°40'0 0.0
2018-Jun-07 21:28N 44°20' E 028°40'0 0.0
2018-Jun-07 20:52N 44°20' E 028°40'0 0.0
2018-Jun-07 20:28N 44°20' E 028°40'0 0.0
2018-Jun-07 19:58N 44°20' E 028°40'0 0.0
2018-Jun-07 19:28N 44°20' E 028°40'0 0.0
2018-Jun-07 18:58N 44°20' E 028°40'0 0.0
2018-Jun-07 18:28N 44°20' E 028°40'0 0.0
2018-Jun-07 17:58N 44°20' E 028°40'0 0.0
2018-Jun-07 17:28N 44°20' E 028°40'0 0.0
2018-Jun-07 16:58N 44°20' E 028°40'0 0.0
2018-Jun-07 16:28N 44°20' E 028°40'0 0.0
2018-Jun-07 15:58N 44°20' E 028°40'0 0.0
2018-Jun-07 15:28N 44°20' E 028°40'0 0.0
2018-Jun-07 14:55N 44°20' E 028°40'0 0.0
2018-Jun-07 14:28N 44°20' E 028°40'0 0.0
2018-Jun-07 13:58N 44°20' E 028°40'0 0.0
2018-Jun-07 13:28N 44°20' E 028°40'0 0.0
2018-Jun-07 12:58N 44°20' E 028°40'0 0.0
2018-Jun-07 12:28N 44°20' E 028°40'0 0.0
2018-Jun-07 11:58N 44°20' E 028°40'0 0.0
2018-Jun-07 11:28N 44°20' E 028°40'0 0.0
2018-Jun-07 10:58N 44°20' E 028°40'0 0.0
2018-Jun-07 10:25N 44°20' E 028°40'0 0.0
2018-Jun-07 09:58N 44°20' E 028°40'0 0.0
2018-Jun-07 09:28N 44°20' E 028°40'0 0.0
2018-Jun-07 08:58N 44°20' E 028°40'0 0.0
2018-Jun-07 08:25N 44°20' E 028°40'0 0.0
2018-Jun-07 07:58N 44°20' E 028°40'0 0.0
2018-Jun-07 07:28N 44°20' E 028°40'0 0.1
2018-Jun-07 07:00N 44°20' E 028°40'3 5.8
2018-Jun-07 06:31N 44°18' E 028°43'510.7
2018-Jun-07 06:00N 44°14' E 028°48'5 9.4
2018-Jun-07 05:30N 44°09' E 028°49'0 0.6
2018-Jun-07 04:59N 44°09' E 028°49'0 0.1
2018-Jun-07 04:29N 44°09' E 028°49'0 0.0
2018-Jun-07 03:59N 44°09' E 028°49'0 0.0
2018-Jun-07 03:29N 44°09' E 028°49'0 0.0
2018-Jun-07 02:59N 44°09' E 028°49'0 0.0
2018-Jun-07 02:29N 44°09' E 028°49'0 0.0
2018-Jun-07 01:59N 44°09' E 028°49'0 0.0
2018-Jun-07 01:29N 44°09' E 028°49'0 0.0
2018-Jun-07 00:56N 44°09' E 028°49'0 0.0
2018-Jun-07 00:29N 44°09' E 028°49'0 0.0
2018-Jun-06 23:59N 44°09' E 028°49'0 0.0
2018-Jun-06 23:29N 44°09' E 028°49'0 0.0
2018-Jun-06 22:59N 44°09' E 028°49'0 0.0
2018-Jun-06 22:29N 44°09' E 028°49'0 0.0
2018-Jun-06 21:59N 44°09' E 028°49'0 0.0
2018-Jun-06 21:29N 44°09' E 028°49'0 0.0
2018-Jun-06 20:59N 44°09' E 028°49'0 0.0
2018-Jun-06 20:29N 44°09' E 028°49'0 0.0
2018-Jun-06 19:59N 44°09' E 028°49'0 0.3
2018-Jun-06 19:29N 44°09' E 028°49'0 0.1
2018-Jun-06 18:59N 44°09' E 028°49'0 0.0
2018-Jun-06 18:29N 44°09' E 028°49'0 0.0
2018-Jun-06 17:59N 44°09' E 028°49'0 0.0
2018-Jun-06 17:29N 44°09' E 028°49'0 0.0
2018-Jun-06 17:00N 44°09' E 028°49'0 0.0
2018-Jun-06 16:30N 44°09' E 028°49'0 0.0
2018-Jun-06 16:00N 44°09' E 028°49'0 0.0
2018-Jun-06 15:30N 44°09' E 028°49'0 0.0
2018-Jun-06 15:00N 44°09' E 028°49'1 2.0
2018-Jun-06 14:30N 44°09' E 028°50'610.0
2018-Jun-06 13:55N 44°09' E 028°59'513.4
2018-Jun-06 13:30N 44°08' E 029°06'713.3
2018-Jun-06 13:00N 44°06' E 029°15'713.3
2018-Jun-06 12:30N 44°03' E 029°23'713.2
2018-Jun-06 12:00N 44°00' E 029°32'713.3
2018-Jun-06 11:30N 43°57' E 029°40'613.1
2018-Jun-06 11:00N 43°55' E 029°48'612.9
2018-Jun-06 10:30N 43°52' E 029°57'712.9
2018-Jun-06 10:00N 43°49' E 030°05'  
Track history (hours):
 
Tides and Currents Weather Stations Pressure Air Temp Water Temp Dewpoint Dewpoint Depression Visibility Wind Speed Wind Dir Waves Ship Positions

Eviapetrol V

Last reported at 2018-Jun-16 09:45 UTC. Time now 2018-Jun-20 13:12 UTC.
Position N 38°14' E 022°26'.

Length 120 m; draft 5.3 m.

Type: Ship (hazmat cat B). MMSI: 241344000.

Date/timePositionNaut miles runAvg speedWind from/ knotsBaromVisibWave heightAir tempDewpointWater temp
2018-Jun-16 09:45N 38°14' E 022°26'412.8
2018-Jun-16 09:27N 38°13' E 022°30'3 7.5
2018-Jun-16 09:00N 38°10' E 022°33'612.7
2018-Jun-16 08:30N 38°07' E 022°40'5 9.9
2018-Jun-16 08:00N 38°05' E 022°46'0 0.6
2018-Jun-16 07:31N 38°05' E 022°46'0 0.7
2018-Jun-16 07:00N 38°05' E 022°45'2 3.4
2018-Jun-16 06:30N 38°04' E 022°46'5 9.7
2018-Jun-16 06:00N 38°01' E 022°51'4 8.9
2018-Jun-16 05:30N 37°58' E 022°56'5 3.8
2018-Jun-16 04:20N 37°55' E 023°00'1 3.7
2018-Jun-16 04:00N 37°55' E 023°01'3 5.6
2018-Jun-16 03:30N 37°54' E 023°05'611.6
2018-Jun-16 03:01N 37°53' E 023°12'611.5
2018-Jun-16 02:31N 37°51' E 023°19'1 1.8
2018-Jun-16 02:00N 37°51' E 023°20'510.7
2018-Jun-16 01:31N 37°50' E 023°27'611.5
2018-Jun-16 01:01N 37°51' E 023°34'4 7.1
2018-Jun-16 00:31N 37°54' E 023°35'1 2.6
2018-Jun-16 00:01N 37°53' E 023°37'510.9
2018-Jun-15 23:30N 37°49' E 023°40'612.3
2018-Jun-15 23:01N 37°43' E 023°43'612.4
2018-Jun-15 22:30N 37°39' E 023°49'  
2018-Jun-09 18:05N 40°47' E 027°46'112.4
2018-Jun-09 18:00N 40°47' E 027°48'612.4
2018-Jun-09 17:29N 40°48' E 027°56'712.8
2018-Jun-09 16:56N 40°49' E 028°05'712.8
2018-Jun-09 16:22N 40°51' E 028°15'1912.2
2018-Jun-09 14:46N 40°54' E 028°40'811.8
2018-Jun-09 14:05N 40°55' E 028°51'112.0
2018-Jun-09 13:59N 40°55' E 028°52'610.8
2018-Jun-09 13:26N 40°59' E 028°59'1511.7
2018-Jun-09 12:10N 41°12' E 029°07'2 9.9
2018-Jun-09 12:00N 41°14' E 029°08'4 8.1
2018-Jun-09 11:30N 41°18' E 029°07'2 4.8
2018-Jun-09 11:00N 41°20' E 029°05'4 6.7
2018-Jun-09 10:28N 41°22' E 029°01'0 0.5
2018-Jun-09 10:00N 41°22' E 029°01'0 0.0
2018-Jun-09 09:30N 41°22' E 029°01'0 0.2
2018-Jun-09 08:58N 41°22' E 029°01'0 0.4
2018-Jun-09 08:30N 41°21' E 029°01'0 0.2
2018-Jun-09 07:59N 41°21' E 029°01'4 8.3
2018-Jun-09 07:30N 41°25' E 029°00'612.3
2018-Jun-09 07:00N 41°31' E 029°05'612.0
2018-Jun-09 06:30N 41°36' E 029°06'812.5
2018-Jun-09 05:53N 41°44' E 029°05'512.7
2018-Jun-09 05:30N 41°49' E 029°05'612.8
2018-Jun-09 05:00N 41°55' E 029°04'612.7
2018-Jun-09 04:30N 42°02' E 029°03'612.6
2018-Jun-09 04:01N 42°08' E 029°03'612.5
2018-Jun-09 03:30N 42°14' E 029°02'612.5
2018-Jun-09 03:00N 42°21' E 029°02'612.6
2018-Jun-09 02:31N 42°27' E 029°01'612.6
2018-Jun-09 02:00N 42°33' E 029°00'612.5
2018-Jun-09 01:30N 42°39' E 028°60'612.3
2018-Jun-09 01:00N 42°45' E 028°59'612.2
2018-Jun-09 00:30N 42°52' E 028°59'612.1
2018-Jun-09 00:00N 42°58' E 028°58'612.1
2018-Jun-08 23:30N 43°04' E 028°58'612.2
2018-Jun-08 23:00N 43°10' E 028°56'612.1
2018-Jun-08 22:30N 43°16' E 028°55'611.9
2018-Jun-08 22:00N 43°22' E 028°56'612.1
2018-Jun-08 21:30N 43°28' E 028°55'612.1
2018-Jun-08 21:00N 43°34' E 028°55'612.3
2018-Jun-08 20:30N 43°40' E 028°54'612.3
2018-Jun-08 20:00N 43°46' E 028°54'612.3
2018-Jun-08 19:30N 43°52' E 028°53'611.9
2018-Jun-08 19:00N 43°58' E 028°52'611.6
2018-Jun-08 18:30N 44°04' E 028°52'510.8
2018-Jun-08 18:00N 44°09' E 028°51'611.4
2018-Jun-08 17:30N 44°14' E 028°47'611.3
2018-Jun-08 17:00N 44°18' E 028°42'2 4.1
2018-Jun-08 16:29N 44°20' E 028°40'0 0.1
2018-Jun-08 16:00N 44°20' E 028°40'0 0.0
2018-Jun-08 15:30N 44°20' E 028°40'0 0.0
2018-Jun-08 14:52N 44°20' E 028°40'0 0.0
2018-Jun-08 14:28N 44°20' E 028°40'0 0.0
2018-Jun-08 13:58N 44°20' E 028°40'0 0.0
2018-Jun-08 13:28N 44°20' E 028°40'0 0.0
2018-Jun-08 12:58N 44°20' E 028°40'0 0.0
2018-Jun-08 12:28N 44°20' E 028°40'0 0.0
2018-Jun-08 11:55N 44°20' E 028°40'0 0.0
2018-Jun-08 11:28N 44°20' E 028°40'0 0.0
2018-Jun-08 10:55N 44°20' E 028°40'0 0.0
2018-Jun-08 10:28N 44°20' E 028°40'0 0.0
2018-Jun-08 09:58N 44°20' E 028°40'0 0.0
2018-Jun-08 09:28N 44°20' E 028°40'0 0.0
2018-Jun-08 08:55N 44°20' E 028°40'0 0.0
2018-Jun-08 08:28N 44°20' E 028°40'0 0.0
2018-Jun-08 07:58N 44°20' E 028°40'0 0.0
2018-Jun-08 07:28N 44°20' E 028°40'0 0.0
2018-Jun-08 06:55N 44°20' E 028°40'0 0.0
2018-Jun-08 06:28N 44°20' E 028°40'0 0.0
2018-Jun-08 05:58N 44°20' E 028°40'0 0.0
2018-Jun-08 05:28N 44°20' E 028°40'0 0.0
2018-Jun-08 04:58N 44°20' E 028°40'0 0.0
2018-Jun-08 04:28N 44°20' E 028°40'0 0.0
2018-Jun-08 03:58N 44°20' E 028°40'0 0.0
2018-Jun-08 03:28N 44°20' E 028°40'0 0.0
2018-Jun-08 02:55N 44°20' E 028°40'0 0.0
2018-Jun-08 02:28N 44°20' E 028°40'0 0.0
2018-Jun-08 01:58N 44°20' E 028°40'0 0.0
2018-Jun-08 01:28N 44°20' E 028°40'0 0.0
2018-Jun-08 00:58N 44°20' E 028°40'0 0.0
2018-Jun-08 00:28N 44°20' E 028°40'0 0.0
2018-Jun-07 23:58N 44°20' E 028°40'0 0.0
2018-Jun-07 23:28N 44°20' E 028°40'0 0.0
2018-Jun-07 22:58N 44°20' E 028°40'0 0.0
2018-Jun-07 22:25N 44°20' E 028°40'0 0.0
2018-Jun-07 21:58N 44°20' E 028°40'0 0.0
2018-Jun-07 21:28N 44°20' E 028°40'0 0.0
2018-Jun-07 20:52N 44°20' E 028°40'0 0.0
2018-Jun-07 20:28N 44°20' E 028°40'0 0.0
2018-Jun-07 19:58N 44°20' E 028°40'0 0.0
2018-Jun-07 19:28N 44°20' E 028°40'0 0.0
2018-Jun-07 18:58N 44°20' E 028°40'0 0.0
2018-Jun-07 18:28N 44°20' E 028°40'0 0.0
2018-Jun-07 17:58N 44°20' E 028°40'0 0.0
2018-Jun-07 17:28N 44°20' E 028°40'0 0.0
2018-Jun-07 16:58N 44°20' E 028°40'0 0.0
2018-Jun-07 16:28N 44°20' E 028°40'0 0.0
2018-Jun-07 15:58N 44°20' E 028°40'0 0.0
2018-Jun-07 15:28N 44°20' E 028°40'0 0.0
2018-Jun-07 14:55N 44°20' E 028°40'0 0.0
2018-Jun-07 14:28N 44°20' E 028°40'0 0.0
2018-Jun-07 13:58N 44°20' E 028°40'0 0.0
2018-Jun-07 13:28N 44°20' E 028°40'0 0.0
2018-Jun-07 12:58N 44°20' E 028°40'0 0.0
2018-Jun-07 12:28N 44°20' E 028°40'0 0.0
2018-Jun-07 11:58N 44°20' E 028°40'0 0.0
2018-Jun-07 11:28N 44°20' E 028°40'0 0.0
2018-Jun-07 10:58N 44°20' E 028°40'0 0.0
2018-Jun-07 10:25N 44°20' E 028°40'0 0.0
2018-Jun-07 09:58N 44°20' E 028°40'0 0.0
2018-Jun-07 09:28N 44°20' E 028°40'0 0.0
2018-Jun-07 08:58N 44°20' E 028°40'0 0.0
2018-Jun-07 08:25N 44°20' E 028°40'0 0.0
2018-Jun-07 07:58N 44°20' E 028°40'0 0.0
2018-Jun-07 07:28N 44°20' E 028°40'0 0.1
2018-Jun-07 07:00N 44°20' E 028°40'3 5.8
2018-Jun-07 06:31N 44°18' E 028°43'510.7
2018-Jun-07 06:00N 44°14' E 028°48'5 9.4
2018-Jun-07 05:30N 44°09' E 028°49'0 0.6
2018-Jun-07 04:59N 44°09' E 028°49'0 0.1
2018-Jun-07 04:29N 44°09' E 028°49'0 0.0
2018-Jun-07 03:59N 44°09' E 028°49'0 0.0
2018-Jun-07 03:29N 44°09' E 028°49'0 0.0
2018-Jun-07 02:59N 44°09' E 028°49'0 0.0
2018-Jun-07 02:29N 44°09' E 028°49'0 0.0
2018-Jun-07 01:59N 44°09' E 028°49'0 0.0
2018-Jun-07 01:29N 44°09' E 028°49'0 0.0
2018-Jun-07 00:56N 44°09' E 028°49'0 0.0
2018-Jun-07 00:29N 44°09' E 028°49'0 0.0
2018-Jun-06 23:59N 44°09' E 028°49'0 0.0
2018-Jun-06 23:29N 44°09' E 028°49'0 0.0
2018-Jun-06 22:59N 44°09' E 028°49'0 0.0
2018-Jun-06 22:29N 44°09' E 028°49'0 0.0
2018-Jun-06 21:59N 44°09' E 028°49'0 0.0
2018-Jun-06 21:29N 44°09' E 028°49'0 0.0
2018-Jun-06 20:59N 44°09' E 028°49'0 0.0
2018-Jun-06 20:29N 44°09' E 028°49'0 0.0
2018-Jun-06 19:59N 44°09' E 028°49'0 0.3
2018-Jun-06 19:29N 44°09' E 028°49'0 0.1
2018-Jun-06 18:59N 44°09' E 028°49'0 0.0
2018-Jun-06 18:29N 44°09' E 028°49'0 0.0
2018-Jun-06 17:59N 44°09' E 028°49'0 0.0
2018-Jun-06 17:29N 44°09' E 028°49'0 0.0
2018-Jun-06 17:00N 44°09' E 028°49'0 0.0
2018-Jun-06 16:30N 44°09' E 028°49'0 0.0
2018-Jun-06 16:00N 44°09' E 028°49'0 0.0
2018-Jun-06 15:30N 44°09' E 028°49'0 0.0
2018-Jun-06 15:00N 44°09' E 028°49'1 2.0
2018-Jun-06 14:30N 44°09' E 028°50'610.0
2018-Jun-06 13:55N 44°09' E 028°59'513.4
2018-Jun-06 13:30N 44°08' E 029°06'713.3
2018-Jun-06 13:00N 44°06' E 029°15'713.3
2018-Jun-06 12:30N 44°03' E 029°23'713.2
2018-Jun-06 12:00N 44°00' E 029°32'713.3
2018-Jun-06 11:30N 43°57' E 029°40'613.1
2018-Jun-06 11:00N 43°55' E 029°48'612.9
2018-Jun-06 10:30N 43°52' E 029°57'712.9
2018-Jun-06 10:00N 43°49' E 030°05'  

Dump ship's entire track history